sensor_id;sensor_type;location;lat;lon;timestamp;P1;durP1;ratioP1;P2;durP2;ratioP2
70967;SDS011;58629;48.808;8.820;2023-06-26T00:02:10;6.00;;;4.23;;
70967;SDS011;58629;48.808;8.820;2023-06-26T00:04:36;5.40;;;4.07;;
70967;SDS011;58629;48.808;8.820;2023-06-26T00:07:02;5.93;;;4.03;;
70967;SDS011;58629;48.808;8.820;2023-06-26T00:09:29;5.18;;;3.47;;
70967;SDS011;58629;48.808;8.820;2023-06-26T00:11:54;5.07;;;3.67;;
70967;SDS011;58629;48.808;8.820;2023-06-26T00:14:19;4.47;;;3.23;;
70967;SDS011;58629;48.808;8.820;2023-06-26T00:16:47;5.35;;;3.72;;
70967;SDS011;58629;48.808;8.820;2023-06-26T00:19:14;4.35;;;3.38;;
70967;SDS011;58629;48.808;8.820;2023-06-26T00:21:40;5.40;;;3.58;;
70967;SDS011;58629;48.808;8.820;2023-06-26T00:24:05;7.50;;;4.37;;
70967;SDS011;58629;48.808;8.820;2023-06-26T00:26:31;8.83;;;5.10;;
70967;SDS011;58629;48.808;8.820;2023-06-26T00:28:56;6.30;;;4.25;;
70967;SDS011;58629;48.808;8.820;2023-06-26T00:31:21;5.85;;;4.20;;
70967;SDS011;58629;48.808;8.820;2023-06-26T00:33:47;6.57;;;4.50;;
70967;SDS011;58629;48.808;8.820;2023-06-26T00:36:12;5.77;;;3.90;;
70967;SDS011;58629;48.808;8.820;2023-06-26T00:38:37;5.33;;;3.67;;
70967;SDS011;58629;48.808;8.820;2023-06-26T00:41:02;5.40;;;3.73;;
70967;SDS011;58629;48.808;8.820;2023-06-26T00:43:28;5.30;;;3.90;;
70967;SDS011;58629;48.808;8.820;2023-06-26T00:45:53;6.13;;;4.00;;
70967;SDS011;58629;48.808;8.820;2023-06-26T00:48:18;4.37;;;2.93;;
70967;SDS011;58629;48.808;8.820;2023-06-26T00:50:44;4.57;;;3.38;;
70967;SDS011;58629;48.808;8.820;2023-06-26T00:53:10;5.20;;;3.70;;
70967;SDS011;58629;48.808;8.820;2023-06-26T00:55:36;5.07;;;3.60;;
70967;SDS011;58629;48.808;8.820;2023-06-26T00:58:01;5.43;;;3.60;;
70967;SDS011;58629;48.808;8.820;2023-06-26T01:00:27;4.50;;;3.10;;
70967;SDS011;58629;48.808;8.820;2023-06-26T01:02:53;5.47;;;3.60;;
70967;SDS011;58629;48.808;8.820;2023-06-26T01:05:18;6.73;;;4.57;;
70967;SDS011;58629;48.808;8.820;2023-06-26T01:07:49;5.30;;;3.85;;
70967;SDS011;58629;48.808;8.820;2023-06-26T01:10:15;5.15;;;3.60;;
70967;SDS011;58629;48.808;8.820;2023-06-26T01:12:40;4.57;;;3.45;;
70967;SDS011;58629;48.808;8.820;2023-06-26T01:15:06;4.03;;;3.20;;
70967;SDS011;58629;48.808;8.820;2023-06-26T01:17:32;4.55;;;3.20;;
70967;SDS011;58629;48.808;8.820;2023-06-26T01:20:00;5.10;;;3.70;;
70967;SDS011;58629;48.808;8.820;2023-06-26T01:22:33;4.18;;;3.10;;
70967;SDS011;58629;48.808;8.820;2023-06-26T01:28:23;5.38;;;3.83;;
70967;SDS011;58629;48.808;8.820;2023-06-26T01:30:51;4.50;;;3.35;;
70967;SDS011;58629;48.808;8.820;2023-06-26T01:33:17;4.33;;;3.03;;
70967;SDS011;58629;48.808;8.820;2023-06-26T01:35:42;4.38;;;3.20;;
70967;SDS011;58629;48.808;8.820;2023-06-26T01:38:12;4.10;;;3.25;;
70967;SDS011;58629;48.808;8.820;2023-06-26T01:40:41;4.83;;;3.37;;
70967;SDS011;58629;48.808;8.820;2023-06-26T01:43:07;4.32;;;3.00;;
70967;SDS011;58629;48.808;8.820;2023-06-26T01:45:36;4.30;;;3.10;;
70967;SDS011;58629;48.808;8.820;2023-06-26T01:48:02;4.80;;;3.42;;
70967;SDS011;58629;48.808;8.820;2023-06-26T01:50:31;4.32;;;3.10;;
70967;SDS011;58629;48.808;8.820;2023-06-26T01:53:03;6.38;;;3.72;;
70967;SDS011;58629;48.808;8.820;2023-06-26T01:55:51;5.57;;;3.65;;
70967;SDS011;58629;48.808;8.820;2023-06-26T01:58:22;4.00;;;2.90;;
70967;SDS011;58629;48.808;8.820;2023-06-26T02:00:50;4.32;;;3.08;;
70967;SDS011;58629;48.808;8.820;2023-06-26T02:03:15;4.60;;;3.35;;
70967;SDS011;58629;48.808;8.820;2023-06-26T02:05:41;4.97;;;3.40;;
70967;SDS011;58629;48.808;8.820;2023-06-26T02:08:07;4.10;;;2.80;;
70967;SDS011;58629;48.808;8.820;2023-06-26T02:10:33;4.72;;;3.38;;
70967;SDS011;58629;48.808;8.820;2023-06-26T02:12:59;4.33;;;2.90;;
70967;SDS011;58629;48.808;8.820;2023-06-26T02:15:25;4.43;;;3.15;;
70967;SDS011;58629;48.808;8.820;2023-06-26T02:17:50;4.57;;;3.20;;
70967;SDS011;58629;48.808;8.820;2023-06-26T02:20:16;4.10;;;2.80;;
70967;SDS011;58629;48.808;8.820;2023-06-26T02:22:41;3.40;;;2.70;;
70967;SDS011;58629;48.808;8.820;2023-06-26T02:25:07;3.78;;;2.72;;
70967;SDS011;58629;48.808;8.820;2023-06-26T02:27:33;3.67;;;2.67;;
70967;SDS011;58629;48.808;8.820;2023-06-26T02:29:58;3.90;;;2.90;;
70967;SDS011;58629;48.808;8.820;2023-06-26T02:32:23;4.67;;;3.13;;
70967;SDS011;58629;48.808;8.820;2023-06-26T02:34:49;3.37;;;2.60;;
70967;SDS011;58629;48.808;8.820;2023-06-26T02:37:16;4.00;;;3.08;;
70967;SDS011;58629;48.808;8.820;2023-06-26T02:39:42;3.90;;;2.80;;
70967;SDS011;58629;48.808;8.820;2023-06-26T02:42:07;4.93;;;3.40;;
70967;SDS011;58629;48.808;8.820;2023-06-26T02:44:32;3.92;;;2.92;;
70967;SDS011;58629;48.808;8.820;2023-06-26T02:46:58;4.18;;;2.90;;
70967;SDS011;58629;48.808;8.820;2023-06-26T02:49:23;4.47;;;3.20;;
70967;SDS011;58629;48.808;8.820;2023-06-26T02:51:48;5.27;;;3.30;;
70967;SDS011;58629;48.808;8.820;2023-06-26T02:54:14;3.83;;;2.80;;
70967;SDS011;58629;48.808;8.820;2023-06-26T02:56:39;3.77;;;2.80;;
70967;SDS011;58629;48.808;8.820;2023-06-26T02:59:04;3.60;;;2.80;;
70967;SDS011;58629;48.808;8.820;2023-06-26T03:01:30;4.50;;;3.10;;
70967;SDS011;58629;48.808;8.820;2023-06-26T03:03:55;5.40;;;3.63;;
70967;SDS011;58629;48.808;8.820;2023-06-26T03:06:20;6.10;;;4.13;;
70967;SDS011;58629;48.808;8.820;2023-06-26T03:08:46;4.55;;;3.33;;
70967;SDS011;58629;48.808;8.820;2023-06-26T03:11:11;4.80;;;3.40;;
70967;SDS011;58629;48.808;8.820;2023-06-26T03:13:37;4.70;;;3.20;;
70967;SDS011;58629;48.808;8.820;2023-06-26T03:16:02;5.03;;;3.55;;
70967;SDS011;58629;48.808;8.820;2023-06-26T03:18:29;4.63;;;3.50;;
70967;SDS011;58629;48.808;8.820;2023-06-26T03:20:55;4.90;;;3.60;;
70967;SDS011;58629;48.808;8.820;2023-06-26T03:23:21;4.00;;;3.13;;
70967;SDS011;58629;48.808;8.820;2023-06-26T03:25:47;4.40;;;3.20;;
70967;SDS011;58629;48.808;8.820;2023-06-26T03:28:13;5.13;;;3.58;;
70967;SDS011;58629;48.808;8.820;2023-06-26T03:30:39;5.23;;;3.60;;
70967;SDS011;58629;48.808;8.820;2023-06-26T03:33:04;4.03;;;2.97;;
70967;SDS011;58629;48.808;8.820;2023-06-26T03:35:29;3.90;;;2.80;;
70967;SDS011;58629;48.808;8.820;2023-06-26T03:37:54;5.60;;;3.50;;
70967;SDS011;58629;48.808;8.820;2023-06-26T03:40:20;4.47;;;3.00;;
70967;SDS011;58629;48.808;8.820;2023-06-26T03:42:45;4.70;;;3.03;;
70967;SDS011;58629;48.808;8.820;2023-06-26T03:45:11;4.10;;;2.80;;
70967;SDS011;58629;48.808;8.820;2023-06-26T03:47:36;4.93;;;3.17;;
70967;SDS011;58629;48.808;8.820;2023-06-26T03:50:01;3.70;;;2.70;;
70967;SDS011;58629;48.808;8.820;2023-06-26T03:52:27;4.20;;;2.83;;
70967;SDS011;58629;48.808;8.820;2023-06-26T03:54:52;4.03;;;2.80;;
70967;SDS011;58629;48.808;8.820;2023-06-26T03:57:17;4.50;;;3.10;;
70967;SDS011;58629;48.808;8.820;2023-06-26T03:59:43;4.67;;;3.03;;
70967;SDS011;58629;48.808;8.820;2023-06-26T04:02:08;4.73;;;3.50;;
70967;SDS011;58629;48.808;8.820;2023-06-26T04:04:33;4.97;;;3.10;;
70967;SDS011;58629;48.808;8.820;2023-06-26T04:06:58;3.53;;;2.67;;
70967;SDS011;58629;48.808;8.820;2023-06-26T04:09:24;4.68;;;3.22;;
70967;SDS011;58629;48.808;8.820;2023-06-26T04:11:50;4.35;;;3.00;;
70967;SDS011;58629;48.808;8.820;2023-06-26T04:14:15;4.10;;;3.10;;
70967;SDS011;58629;48.808;8.820;2023-06-26T04:16:41;4.30;;;3.13;;
70967;SDS011;58629;48.808;8.820;2023-06-26T04:19:06;4.13;;;2.97;;
70967;SDS011;58629;48.808;8.820;2023-06-26T04:21:32;4.60;;;3.40;;
70967;SDS011;58629;48.808;8.820;2023-06-26T04:23:58;4.27;;;3.20;;
70967;SDS011;58629;48.808;8.820;2023-06-26T04:26:23;4.67;;;3.00;;
70967;SDS011;58629;48.808;8.820;2023-06-26T04:28:48;4.97;;;3.20;;
70967;SDS011;58629;48.808;8.820;2023-06-26T04:31:14;4.23;;;3.20;;
70967;SDS011;58629;48.808;8.820;2023-06-26T04:33:39;4.47;;;2.90;;
70967;SDS011;58629;48.808;8.820;2023-06-26T04:36:05;4.88;;;3.28;;
70967;SDS011;58629;48.808;8.820;2023-06-26T04:38:31;4.50;;;2.97;;
70967;SDS011;58629;48.808;8.820;2023-06-26T04:40:57;4.40;;;3.00;;
70967;SDS011;58629;48.808;8.820;2023-06-26T04:43:23;3.60;;;2.70;;
70967;SDS011;58629;48.808;8.820;2023-06-26T04:45:48;5.43;;;3.90;;
70967;SDS011;58629;48.808;8.820;2023-06-26T04:48:13;4.63;;;3.20;;
70967;SDS011;58629;48.808;8.820;2023-06-26T04:50:39;4.03;;;2.67;;
70967;SDS011;58629;48.808;8.820;2023-06-26T04:53:05;4.45;;;2.90;;
70967;SDS011;58629;48.808;8.820;2023-06-26T04:55:30;4.10;;;2.83;;
70967;SDS011;58629;48.808;8.820;2023-06-26T04:57:55;4.33;;;2.87;;
70967;SDS011;58629;48.808;8.820;2023-06-26T05:00:21;4.22;;;3.40;;
70967;SDS011;58629;48.808;8.820;2023-06-26T05:02:47;3.93;;;2.90;;
70967;SDS011;58629;48.808;8.820;2023-06-26T05:05:12;4.97;;;3.60;;
70967;SDS011;58629;48.808;8.820;2023-06-26T05:07:38;4.07;;;2.80;;
70967;SDS011;58629;48.808;8.820;2023-06-26T05:10:04;4.30;;;3.30;;
70967;SDS011;58629;48.808;8.820;2023-06-26T05:12:29;4.68;;;3.28;;
70967;SDS011;58629;48.808;8.820;2023-06-26T05:14:55;4.83;;;3.30;;
70967;SDS011;58629;48.808;8.820;2023-06-26T05:17:20;3.40;;;2.80;;
70967;SDS011;58629;48.808;8.820;2023-06-26T05:19:45;4.63;;;3.20;;
70967;SDS011;58629;48.808;8.820;2023-06-26T05:22:12;5.18;;;3.80;;
70967;SDS011;58629;48.808;8.820;2023-06-26T05:24:38;5.30;;;4.07;;
70967;SDS011;58629;48.808;8.820;2023-06-26T05:27:04;5.07;;;3.80;;
70967;SDS011;58629;48.808;8.820;2023-06-26T05:29:30;4.72;;;3.65;;
70967;SDS011;58629;48.808;8.820;2023-06-26T05:31:57;5.20;;;4.05;;
70967;SDS011;58629;48.808;8.820;2023-06-26T05:34:23;5.38;;;4.18;;
70967;SDS011;58629;48.808;8.820;2023-06-26T05:36:51;6.88;;;4.43;;
70967;SDS011;58629;48.808;8.820;2023-06-26T05:39:17;6.15;;;4.40;;
70967;SDS011;58629;48.808;8.820;2023-06-26T05:41:45;6.07;;;4.50;;
70967;SDS011;58629;48.808;8.820;2023-06-26T05:44:11;5.82;;;4.40;;
70967;SDS011;58629;48.808;8.820;2023-06-26T05:46:36;5.73;;;4.53;;
70967;SDS011;58629;48.808;8.820;2023-06-26T05:49:02;6.93;;;4.90;;
70967;SDS011;58629;48.808;8.820;2023-06-26T05:51:28;6.38;;;4.55;;
70967;SDS011;58629;48.808;8.820;2023-06-26T05:53:53;5.90;;;4.38;;
70967;SDS011;58629;48.808;8.820;2023-06-26T05:56:19;5.15;;;4.15;;
70967;SDS011;58629;48.808;8.820;2023-06-26T05:58:45;6.43;;;4.57;;
70967;SDS011;58629;48.808;8.820;2023-06-26T06:01:11;5.80;;;4.60;;
70967;SDS011;58629;48.808;8.820;2023-06-26T06:03:36;5.30;;;4.10;;
70967;SDS011;58629;48.808;8.820;2023-06-26T06:06:04;5.93;;;4.30;;
70967;SDS011;58629;48.808;8.820;2023-06-26T06:08:29;4.90;;;3.93;;
70967;SDS011;58629;48.808;8.820;2023-06-26T06:10:54;5.30;;;4.20;;
70967;SDS011;58629;48.808;8.820;2023-06-26T06:13:20;5.53;;;4.47;;
70967;SDS011;58629;48.808;8.820;2023-06-26T06:15:45;4.83;;;3.80;;
70967;SDS011;58629;48.808;8.820;2023-06-26T06:18:10;5.27;;;4.40;;
70967;SDS011;58629;48.808;8.820;2023-06-26T06:20:36;5.25;;;4.30;;
70967;SDS011;58629;48.808;8.820;2023-06-26T06:23:01;4.75;;;4.00;;
70967;SDS011;58629;48.808;8.820;2023-06-26T06:25:26;4.77;;;4.13;;
70967;SDS011;58629;48.808;8.820;2023-06-26T06:27:52;5.33;;;4.20;;
70967;SDS011;58629;48.808;8.820;2023-06-26T06:30:17;4.53;;;4.00;;
70967;SDS011;58629;48.808;8.820;2023-06-26T06:32:42;5.30;;;4.50;;
70967;SDS011;58629;48.808;8.820;2023-06-26T06:35:08;5.60;;;4.03;;
70967;SDS011;58629;48.808;8.820;2023-06-26T06:37:35;5.32;;;4.20;;
70967;SDS011;58629;48.808;8.820;2023-06-26T06:40:06;4.93;;;4.05;;
70967;SDS011;58629;48.808;8.820;2023-06-26T06:42:34;5.78;;;4.55;;
70967;SDS011;58629;48.808;8.820;2023-06-26T06:44:59;5.47;;;4.70;;
70967;SDS011;58629;48.808;8.820;2023-06-26T06:47:25;5.32;;;4.65;;
70967;SDS011;58629;48.808;8.820;2023-06-26T06:49:50;6.30;;;5.20;;
70967;SDS011;58629;48.808;8.820;2023-06-26T06:52:15;6.10;;;5.03;;
70967;SDS011;58629;48.808;8.820;2023-06-26T06:54:50;4.73;;;4.10;;
70967;SDS011;58629;48.808;8.820;2023-06-26T06:57:20;5.40;;;4.55;;
70967;SDS011;58629;48.808;8.820;2023-06-26T06:59:49;5.00;;;4.30;;
70967;SDS011;58629;48.808;8.820;2023-06-26T07:02:15;4.75;;;4.25;;
70967;SDS011;58629;48.808;8.820;2023-06-26T07:04:44;5.30;;;4.80;;
70967;SDS011;58629;48.808;8.820;2023-06-26T07:07:09;5.03;;;4.53;;
70967;SDS011;58629;48.808;8.820;2023-06-26T07:09:35;5.40;;;4.60;;
70967;SDS011;58629;48.808;8.820;2023-06-26T07:12:01;5.60;;;5.03;;
70967;SDS011;58629;48.808;8.820;2023-06-26T07:14:26;5.40;;;4.90;;
70967;SDS011;58629;48.808;8.820;2023-06-26T07:16:51;5.27;;;4.77;;
70967;SDS011;58629;48.808;8.820;2023-06-26T07:19:17;7.60;;;4.83;;
70967;SDS011;58629;48.808;8.820;2023-06-26T07:21:42;5.43;;;4.20;;
70967;SDS011;58629;48.808;8.820;2023-06-26T07:24:09;6.03;;;4.40;;
70967;SDS011;58629;48.808;8.820;2023-06-26T07:26:35;4.97;;;4.47;;
70967;SDS011;58629;48.808;8.820;2023-06-26T07:29:00;4.83;;;4.10;;
70967;SDS011;58629;48.808;8.820;2023-06-26T07:31:25;4.70;;;4.30;;
70967;SDS011;58629;48.808;8.820;2023-06-26T07:33:50;4.80;;;4.30;;
70967;SDS011;58629;48.808;8.820;2023-06-26T07:36:16;4.80;;;4.40;;
70967;SDS011;58629;48.808;8.820;2023-06-26T07:38:41;5.27;;;4.70;;
70967;SDS011;58629;48.808;8.820;2023-06-26T07:41:07;5.50;;;4.60;;
70967;SDS011;58629;48.808;8.820;2023-06-26T07:43:32;5.17;;;4.63;;
70967;SDS011;58629;48.808;8.820;2023-06-26T07:45:57;5.03;;;4.53;;
70967;SDS011;58629;48.808;8.820;2023-06-26T07:48:24;5.00;;;4.38;;
70967;SDS011;58629;48.808;8.820;2023-06-26T07:50:51;5.20;;;4.70;;
70967;SDS011;58629;48.808;8.820;2023-06-26T07:53:18;4.88;;;4.40;;
70967;SDS011;58629;48.808;8.820;2023-06-26T07:55:43;6.40;;;4.90;;
70967;SDS011;58629;48.808;8.820;2023-06-26T07:58:08;5.73;;;4.67;;
70967;SDS011;58629;48.808;8.820;2023-06-26T08:00:34;4.90;;;4.40;;
70967;SDS011;58629;48.808;8.820;2023-06-26T08:03:00;5.93;;;4.60;;
70967;SDS011;58629;48.808;8.820;2023-06-26T08:05:25;4.90;;;4.40;;
70967;SDS011;58629;48.808;8.820;2023-06-26T08:07:50;5.23;;;4.73;;
70967;SDS011;58629;48.808;8.820;2023-06-26T08:10:16;6.70;;;4.73;;
70967;SDS011;58629;48.808;8.820;2023-06-26T08:12:41;5.18;;;4.70;;
70967;SDS011;58629;48.808;8.820;2023-06-26T08:15:09;5.33;;;4.70;;
70967;SDS011;58629;48.808;8.820;2023-06-26T08:17:35;5.13;;;4.63;;
70967;SDS011;58629;48.808;8.820;2023-06-26T08:20:01;5.10;;;4.60;;
70967;SDS011;58629;48.808;8.820;2023-06-26T08:22:27;5.35;;;4.85;;
70967;SDS011;58629;48.808;8.820;2023-06-26T08:24:52;5.00;;;4.60;;
70967;SDS011;58629;48.808;8.820;2023-06-26T08:27:17;5.07;;;4.63;;
70967;SDS011;58629;48.808;8.820;2023-06-26T08:29:43;6.30;;;4.90;;
70967;SDS011;58629;48.808;8.820;2023-06-26T08:32:08;5.37;;;4.67;;
70967;SDS011;58629;48.808;8.820;2023-06-26T08:34:33;5.80;;;4.80;;
70967;SDS011;58629;48.808;8.820;2023-06-26T08:36:59;6.83;;;5.00;;
70967;SDS011;58629;48.808;8.820;2023-06-26T08:39:24;5.40;;;4.90;;
70967;SDS011;58629;48.808;8.820;2023-06-26T08:41:50;5.77;;;5.27;;
70967;SDS011;58629;48.808;8.820;2023-06-26T08:44:16;5.68;;;5.05;;
70967;SDS011;58629;48.808;8.820;2023-06-26T08:46:41;5.75;;;4.80;;
70967;SDS011;58629;48.808;8.820;2023-06-26T08:49:14;5.93;;;5.40;;
70967;SDS011;58629;48.808;8.820;2023-06-26T08:52:02;5.85;;;5.25;;
70967;SDS011;58629;48.808;8.820;2023-06-26T08:54:33;6.15;;;5.55;;
70967;SDS011;58629;48.808;8.820;2023-06-26T08:57:01;9.90;;;6.05;;
70967;SDS011;58629;48.808;8.820;2023-06-26T08:59:28;5.72;;;5.22;;
70967;SDS011;58629;48.808;8.820;2023-06-26T09:01:54;6.27;;;5.10;;
70967;SDS011;58629;48.808;8.820;2023-06-26T09:04:19;5.40;;;4.90;;
70967;SDS011;58629;48.808;8.820;2023-06-26T09:06:46;5.75;;;5.25;;
70967;SDS011;58629;48.808;8.820;2023-06-26T09:09:11;5.87;;;5.33;;
70967;SDS011;58629;48.808;8.820;2023-06-26T09:11:36;5.80;;;5.30;;
70967;SDS011;58629;48.808;8.820;2023-06-26T09:14:02;5.63;;;5.13;;
70967;SDS011;58629;48.808;8.820;2023-06-26T09:16:30;5.83;;;5.23;;
70967;SDS011;58629;48.808;8.820;2023-06-26T09:18:56;5.80;;;5.20;;
70967;SDS011;58629;48.808;8.820;2023-06-26T09:21:21;6.30;;;5.50;;
70967;SDS011;58629;48.808;8.820;2023-06-26T09:23:49;6.10;;;5.50;;
70967;SDS011;58629;48.808;8.820;2023-06-26T09:26:15;7.43;;;5.80;;
70967;SDS011;58629;48.808;8.820;2023-06-26T09:28:42;6.20;;;5.60;;
70967;SDS011;58629;48.808;8.820;2023-06-26T09:31:08;6.40;;;5.80;;
70967;SDS011;58629;48.808;8.820;2023-06-26T09:33:35;6.50;;;5.82;;
70967;SDS011;58629;48.808;8.820;2023-06-26T09:36:04;6.53;;;5.78;;
70967;SDS011;58629;48.808;8.820;2023-06-26T09:38:36;7.35;;;6.00;;
70967;SDS011;58629;48.808;8.820;2023-06-26T09:41:04;8.40;;;5.80;;
70967;SDS011;58629;48.808;8.820;2023-06-26T09:43:30;6.50;;;5.90;;
70967;SDS011;58629;48.808;8.820;2023-06-26T09:45:56;6.85;;;6.20;;
70967;SDS011;58629;48.808;8.820;2023-06-26T09:48:23;8.73;;;6.27;;
70967;SDS011;58629;48.808;8.820;2023-06-26T09:50:49;13.52;;;6.40;;
70967;SDS011;58629;48.808;8.820;2023-06-26T09:53:14;11.30;;;6.30;;
70967;SDS011;58629;48.808;8.820;2023-06-26T09:55:43;8.60;;;6.22;;
70967;SDS011;58629;48.808;8.820;2023-06-26T09:58:10;6.83;;;6.13;;
70967;SDS011;58629;48.808;8.820;2023-06-26T10:00:40;11.75;;;7.18;;
70967;SDS011;58629;48.808;8.820;2023-06-26T10:03:07;7.45;;;6.38;;
70967;SDS011;58629;48.808;8.820;2023-06-26T10:05:33;7.83;;;6.70;;
70967;SDS011;58629;48.808;8.820;2023-06-26T10:08:00;8.05;;;6.30;;
70967;SDS011;58629;48.808;8.820;2023-06-26T10:10:27;8.63;;;6.57;;
70967;SDS011;58629;48.808;8.820;2023-06-26T10:12:59;8.02;;;6.78;;
70967;SDS011;58629;48.808;8.820;2023-06-26T10:15:29;9.85;;;6.75;;
70967;SDS011;58629;48.808;8.820;2023-06-26T10:17:56;7.23;;;6.53;;
70967;SDS011;58629;48.808;8.820;2023-06-26T10:20:22;7.88;;;6.10;;
70967;SDS011;58629;48.808;8.820;2023-06-26T10:22:50;7.68;;;6.88;;
70967;SDS011;58629;48.808;8.820;2023-06-26T10:25:18;8.13;;;6.82;;
70967;SDS011;58629;48.808;8.820;2023-06-26T10:27:46;6.95;;;6.25;;
70967;SDS011;58629;48.808;8.820;2023-06-26T10:30:17;7.83;;;6.60;;
70967;SDS011;58629;48.808;8.820;2023-06-26T10:32:46;8.77;;;6.85;;
70967;SDS011;58629;48.808;8.820;2023-06-26T10:35:12;9.70;;;6.70;;
70967;SDS011;58629;48.808;8.820;2023-06-26T10:37:41;8.20;;;7.03;;
70967;SDS011;58629;48.808;8.820;2023-06-26T10:40:08;9.10;;;7.27;;
70967;SDS011;58629;48.808;8.820;2023-06-26T10:42:34;9.52;;;7.05;;
70967;SDS011;58629;48.808;8.820;2023-06-26T10:47:49;7.40;;;6.70;;
70967;SDS011;58629;48.808;8.820;2023-06-26T10:50:22;7.53;;;6.60;;
70967;SDS011;58629;48.808;8.820;2023-06-26T10:55:33;7.28;;;6.15;;
70967;SDS011;58629;48.808;8.820;2023-06-26T10:57:58;9.70;;;6.50;;
70967;SDS011;58629;48.808;8.820;2023-06-26T11:00:23;7.93;;;6.30;;
70967;SDS011;58629;48.808;8.820;2023-06-26T11:02:49;8.00;;;6.87;;
70967;SDS011;58629;48.808;8.820;2023-06-26T11:05:25;7.57;;;6.70;;
70967;SDS011;58629;48.808;8.820;2023-06-26T11:08:07;7.10;;;6.40;;
70967;SDS011;58629;48.808;8.820;2023-06-26T11:10:53;6.93;;;6.22;;
70967;SDS011;58629;48.808;8.820;2023-06-26T11:13:21;8.23;;;6.55;;
70967;SDS011;58629;48.808;8.820;2023-06-26T11:15:46;7.07;;;6.37;;
70967;SDS011;58629;48.808;8.820;2023-06-26T11:18:14;6.35;;;5.75;;
70967;SDS011;58629;48.808;8.820;2023-06-26T11:20:40;6.93;;;6.28;;
70967;SDS011;58629;48.808;8.820;2023-06-26T11:23:05;6.67;;;6.07;;
70967;SDS011;58629;48.808;8.820;2023-06-26T11:25:37;6.72;;;5.90;;
70967;SDS011;58629;48.808;8.820;2023-06-26T11:28:05;6.95;;;6.35;;
70967;SDS011;58629;48.808;8.820;2023-06-26T11:30:34;6.85;;;5.70;;
70967;SDS011;58629;48.808;8.820;2023-06-26T11:33:06;6.90;;;6.23;;
70967;SDS011;58629;48.808;8.820;2023-06-26T11:35:35;7.32;;;6.50;;
70967;SDS011;58629;48.808;8.820;2023-06-26T11:38:01;6.70;;;6.00;;
70967;SDS011;58629;48.808;8.820;2023-06-26T11:40:34;10.30;;;6.57;;
70967;SDS011;58629;48.808;8.820;2023-06-26T11:43:01;8.35;;;6.75;;
70967;SDS011;58629;48.808;8.820;2023-06-26T11:45:31;7.95;;;6.20;;
70967;SDS011;58629;48.808;8.820;2023-06-26T11:47:57;7.43;;;5.97;;
70967;SDS011;58629;48.808;8.820;2023-06-26T11:50:23;6.57;;;5.97;;
70967;SDS011;58629;48.808;8.820;2023-06-26T11:52:53;8.10;;;6.13;;
70967;SDS011;58629;48.808;8.820;2023-06-26T11:55:20;6.97;;;6.15;;
70967;SDS011;58629;48.808;8.820;2023-06-26T11:57:50;6.80;;;6.10;;
70967;SDS011;58629;48.808;8.820;2023-06-26T12:00:17;7.63;;;5.80;;
70967;SDS011;58629;48.808;8.820;2023-06-26T12:02:46;6.57;;;5.88;;
70967;SDS011;58629;48.808;8.820;2023-06-26T12:05:15;6.50;;;5.85;;
70967;SDS011;58629;48.808;8.820;2023-06-26T12:07:42;8.23;;;5.85;;
70967;SDS011;58629;48.808;8.820;2023-06-26T12:10:12;6.50;;;5.90;;
70967;SDS011;58629;48.808;8.820;2023-06-26T12:12:39;7.60;;;5.60;;
70967;SDS011;58629;48.808;8.820;2023-06-26T12:15:06;6.88;;;5.93;;
70967;SDS011;58629;48.808;8.820;2023-06-26T12:17:32;6.95;;;5.68;;
70967;SDS011;58629;48.808;8.820;2023-06-26T12:19:58;9.17;;;6.00;;
70967;SDS011;58629;48.808;8.820;2023-06-26T12:22:23;7.50;;;5.93;;
70967;SDS011;58629;48.808;8.820;2023-06-26T12:24:49;6.37;;;5.60;;
70967;SDS011;58629;48.808;8.820;2023-06-26T12:27:15;6.53;;;5.70;;
70967;SDS011;58629;48.808;8.820;2023-06-26T12:29:46;7.93;;;5.50;;
70967;SDS011;58629;48.808;8.820;2023-06-26T12:32:15;6.32;;;5.45;;
70967;SDS011;58629;48.808;8.820;2023-06-26T12:34:41;6.35;;;5.32;;
70967;SDS011;58629;48.808;8.820;2023-06-26T12:37:11;6.37;;;5.37;;
70967;SDS011;58629;48.808;8.820;2023-06-26T12:39:47;8.82;;;5.40;;
70967;SDS011;58629;48.808;8.820;2023-06-26T12:42:13;7.25;;;5.20;;
70967;SDS011;58629;48.808;8.820;2023-06-26T12:44:40;6.88;;;4.93;;
70967;SDS011;58629;48.808;8.820;2023-06-26T12:47:06;6.47;;;4.60;;
70967;SDS011;58629;48.808;8.820;2023-06-26T12:49:36;6.20;;;5.10;;
70967;SDS011;58629;48.808;8.820;2023-06-26T12:52:03;5.32;;;4.80;;
70967;SDS011;58629;48.808;8.820;2023-06-26T12:54:30;5.20;;;4.50;;
70967;SDS011;58629;48.808;8.820;2023-06-26T12:56:57;5.90;;;4.80;;
70967;SDS011;58629;48.808;8.820;2023-06-26T12:59:22;5.65;;;4.93;;
70967;SDS011;58629;48.808;8.820;2023-06-26T13:01:48;5.77;;;4.47;;
70967;SDS011;58629;48.808;8.820;2023-06-26T13:04:14;5.57;;;4.25;;
70967;SDS011;58629;48.808;8.820;2023-06-26T13:06:40;5.43;;;4.20;;
70967;SDS011;58629;48.808;8.820;2023-06-26T13:09:06;5.20;;;4.40;;
70967;SDS011;58629;48.808;8.820;2023-06-26T13:11:31;6.93;;;4.20;;
70967;SDS011;58629;48.808;8.820;2023-06-26T13:13:58;5.20;;;4.60;;
70967;SDS011;58629;48.808;8.820;2023-06-26T13:16:24;4.85;;;4.35;;
70967;SDS011;58629;48.808;8.820;2023-06-26T13:18:49;5.03;;;4.50;;
70967;SDS011;58629;48.808;8.820;2023-06-26T13:21:15;5.35;;;4.18;;
70967;SDS011;58629;48.808;8.820;2023-06-26T13:23:42;6.25;;;4.35;;
70967;SDS011;58629;48.808;8.820;2023-06-26T13:26:08;4.97;;;4.20;;
70967;SDS011;58629;48.808;8.820;2023-06-26T13:28:33;5.50;;;4.20;;
70967;SDS011;58629;48.808;8.820;2023-06-26T13:30:59;4.50;;;4.03;;
70967;SDS011;58629;48.808;8.820;2023-06-26T13:33:24;6.30;;;3.85;;
70967;SDS011;58629;48.808;8.820;2023-06-26T13:35:53;3.90;;;3.50;;
70967;SDS011;58629;48.808;8.820;2023-06-26T13:38:23;5.55;;;3.90;;
70967;SDS011;58629;48.808;8.820;2023-06-26T13:40:52;4.88;;;3.50;;
70967;SDS011;58629;48.808;8.820;2023-06-26T13:43:20;3.78;;;3.47;;
70967;SDS011;58629;48.808;8.820;2023-06-26T13:45:46;6.00;;;3.50;;
70967;SDS011;58629;48.808;8.820;2023-06-26T13:48:11;7.75;;;4.22;;
70967;SDS011;58629;48.808;8.820;2023-06-26T13:50:36;4.43;;;3.33;;
70967;SDS011;58629;48.808;8.820;2023-06-26T13:53:02;5.03;;;3.30;;
70967;SDS011;58629;48.808;8.820;2023-06-26T13:55:27;4.90;;;3.17;;
70967;SDS011;58629;48.808;8.820;2023-06-26T13:57:52;5.13;;;3.20;;
70967;SDS011;58629;48.808;8.820;2023-06-26T14:00:18;3.70;;;3.20;;
70967;SDS011;58629;48.808;8.820;2023-06-26T14:02:45;5.47;;;3.28;;
70967;SDS011;58629;48.808;8.820;2023-06-26T14:05:11;5.28;;;3.40;;
70967;SDS011;58629;48.808;8.820;2023-06-26T14:07:36;4.23;;;3.23;;
70967;SDS011;58629;48.808;8.820;2023-06-26T14:10:03;6.60;;;3.50;;
70967;SDS011;58629;48.808;8.820;2023-06-26T14:12:30;3.87;;;3.30;;
70967;SDS011;58629;48.808;8.820;2023-06-26T14:14:55;4.95;;;3.25;;
70967;SDS011;58629;48.808;8.820;2023-06-26T14:17:21;4.87;;;3.40;;
70967;SDS011;58629;48.808;8.820;2023-06-26T14:19:49;5.03;;;3.60;;
70967;SDS011;58629;48.808;8.820;2023-06-26T14:22:14;4.90;;;3.30;;
70967;SDS011;58629;48.808;8.820;2023-06-26T14:24:39;5.23;;;3.40;;
70967;SDS011;58629;48.808;8.820;2023-06-26T14:27:05;3.93;;;3.40;;
70967;SDS011;58629;48.808;8.820;2023-06-26T14:29:30;4.97;;;3.60;;
70967;SDS011;58629;48.808;8.820;2023-06-26T14:31:55;4.80;;;3.53;;
70967;SDS011;58629;48.808;8.820;2023-06-26T14:34:21;5.47;;;3.80;;
70967;SDS011;58629;48.808;8.820;2023-06-26T14:36:46;4.35;;;3.70;;
70967;SDS011;58629;48.808;8.820;2023-06-26T14:39:12;8.33;;;3.90;;
70967;SDS011;58629;48.808;8.820;2023-06-26T14:41:37;5.83;;;3.77;;
70967;SDS011;58629;48.808;8.820;2023-06-26T14:44:02;6.00;;;3.90;;
70967;SDS011;58629;48.808;8.820;2023-06-26T14:46:28;5.80;;;4.10;;
70967;SDS011;58629;48.808;8.820;2023-06-26T14:48:53;6.07;;;4.10;;
70967;SDS011;58629;48.808;8.820;2023-06-26T14:51:20;5.90;;;4.30;;
70967;SDS011;58629;48.808;8.820;2023-06-26T14:53:46;4.88;;;4.38;;